Gully, MN (56646)

9:07 AM CDT on September 02, 2014 (GMT -0500)
Fosston Municipal | Change Station
CLOSE
Current Station
Airport
Location: Fosston,
Elevation: 1276 ft
Nearby Weather Stations

Elev 1276 ft 47.59 °N, 95.77 °W | Updated 12 minutes ago

Clear
Clear
54 °F
Feels Like 54 °F
N
8
Wind Variable Wind from SSW

Today
High -- | Low -- °F
--% Chance of Precip.
Yesterday
High -- | Low -- °F
Precip. -- in
6:42 AM 8:01 PM
First Quarter, 51% visible
Pressure 29.83 in
Visibility 10.0 miles
Clouds Clear
Dew Point 52 °F
Humidity 94%
Rainfall 0.03 in
Snow Depth Not available.
UV 2 out of 12
Pollen 8.80 out of 12
Air Quality Not available.
Flu Activity Not available.
METAR KFSE 021355Z AUTO 20007KT 10SM CLR 12/11 A2983 RMK AO2

More Conditions Fewer Conditions

Pressure 29.83 in
Visibility 10.0 miles
Clouds Clear
Dew Point 52 °F
Humidity 94%
Rainfall 0.03 in
Snow Depth Not available.
UV 2 out of 12
Pollen 8.80 out of 12
Air Quality Not available.
Flu Activity Not available.
METAR KFSE 021355Z AUTO 20007KT 10SM CLR 12/11 A2983 RMK AO2

More Conditions Fewer Conditions

10-Day Weather Forecast

Almanac

Astronomy

Sep. 02, 2014 Rise Set
Actual Time 6:42 AM CDT 8:01 PM CDT
Civil Twilight 6:10 AM CDT 8:33 PM CDT
Nautical Twilight 5:31 AM CDT 9:11 PM CDT
Astronomical Twilight 4:49 AM CDT 9:52 PM CDT
Moon 2:58 PM CDT No Moon Set
Length of Visible Light 14h 22m
Length of Day
13h 18m
Tomorrow will be 3m 21s shorter.
First Quarter, 51% of the Moon is Illuminated
Today
First Quarter
Sep 8
Full
Sep 15
Last Quarter
Sep 24
New
Oct 1
First Quarter

Today's Extremes

State Highs State Lows

Community

WunderPhotos

Upload Photos

1,749,670 photos uploaded!

WunderBlogs® & News

Nearby

Snow Depth

Station Depth Elevation
No new snow has been reported.

Earthquake Activity

City Distance Mag. Time & Date
No recent earthquake activity has been reported nearby.
Minimum magnitude displayed is 2.5.

Coastal Water Temperatures

Place Temperature
No Stations Reporting

Nearby Weather Stations